LiveATC.Net - Listen to live air traffic control over the Internet!


ICAO: KLXV  IATA: LXV   Airport: Lake County Airport
City: Leadville   State/Province: Colorado
Country: United States   Continent: North America
KLXV METAR Weather: KLXV 132053Z AUTO 35015G21KT 10SM CLR M06/M19 A3026 RMK AO2 SLP264 T10611194 55000
KLXV Flight Activity (FlightAware)
KLXV Airport Info   (AirNav) (iFlightPlanner)
KLXV VFR Sectional Chart   (iFlightPlanner) 
KLXV IFR Low Chart   (iFlightPlanner) 

KLXV CTAF
Feed Status: UP   Listeners: 0
Listen in your browser - HTML5 player (in browser, HTML5)
Listen in your browser - requires Flash (in browser, requires Flash)
Click here to listen with your own player (launches your MP3 player)
KLXV CTAF Audio Archives
FacilityFrequency
Leadville CTAF122.800

NOTICE

Unauthorized use prohibited. See LiveATC.net Terms of Service


Find LiveATC Audio Streams


Airport/ARTCC Code

Frequency Search
(e.g., 124.400, 128.75)
Site-wide search
 


Browse LiveATC Feeds
Top 50 LiveATC Feeds
Bad Weather Areas

LiveATC FAQ
Offer a LiveATC Feed
Contact LiveATC.net
Press Inquiries

LiveATC on iPhone
LiveATC on Android

Windows Phone
Windows 8/10

LiveATC Mobile
(Mobile browser)

ATC Audio Archives
Interesting Recordings

LiveATC Forums


Home Page
About LiveATC.net
Make a Donation
Terms of Use
Privacy Policy

Canadian Air Freqs

AIRMETs/SIGMETs

FAA Airport Status
Nat'l Airspace Status
Arrival Demand Charts


Server Software By:
Icecast.org
Liquidsoap